San Francisco, CA (94115)

1:04 AM PST on November 29, 2014 (GMT -0800)
Drew School | Change Station
CLOSE
Current Station
Personal Weather Station
Location: San Francisco, CA
Elevation: 194 ft
Nearby Weather Stations

Elev 194 ft 37.79 °N, 122.44 °W | Updated 3 minutes ago

Overcast
Overcast
55.8 °F
Feels Like 55.8 °F
N
5.8
Wind Variable Wind from SE

Today
High -- | Low -- °F
--% Chance of Precip.
Yesterday
High -- | Low -- °F
Precip. -- in
7:04 AM 4:51 PM
Waxing Crescent, 49% visible
Pressure 29.85 in
Visibility 9.0 miles
Clouds Few 1300 ft
Overcast 1600 ft
Dew Point 55 °F
Humidity 98%
Rainfall 0.04 in
Snow Depth Not available.
UV 0 out of 12
Pollen 2.30 out of 12
Air Quality Not available.
Flu Activity Not available.
METAR KSFO 290856Z 15008KT 9SM FEW013 OVC016 15/13 A2985 RMK AO2 SLP107 T01500133 58009

More Conditions Fewer Conditions

Pressure 29.85 in
Visibility 9.0 miles
Clouds Few 1300 ft
Overcast 1600 ft
Dew Point 55 °F
Humidity 98%
Rainfall 0.04 in
Snow Depth Not available.
UV 0 out of 12
Pollen 2.30 out of 12
Air Quality Not available.
Flu Activity Not available.
METAR KSFO 290856Z 15008KT 9SM FEW013 OVC016 15/13 A2985 RMK AO2 SLP107 T01500133 58009

More Conditions Fewer Conditions

10-Day Weather Forecast

Almanac

Astronomy

Nov. 29, 2014 Rise Set
Actual Time
Civil Twilight
Nautical Twilight
Astronomical Twilight
Moon
Length of Visible Light
Length of Day
Tomorrow will be .
, % of the Moon is Illuminated

Today's Extremes

State Highs State Lows

Community

WunderPhotos

Upload Photos

1,774,442 photos uploaded!

WunderBlogs® & News

Nearby

Air Quality

  Air Quality AQ Index Pollutant
Not available.

Snow Depth

Station Depth Elevation

Earthquake Activity

City Distance Mag. Time & Date
Minimum magnitude displayed is 2.5.

Coastal Water Temperatures

Place Temperature

Nearby Weather Stations